Time;durP1;ratioP1;P1;durP2;ratioP2;P2;SDS_P1;SDS_P2;PMS_P1;PMS_P2;Temp;Humidity;BMP_temperature;BMP_pressure;BME280_temperature;BME280_humidity;BME280_pressure;Samples;Min_cycle;Max_cycle;Signal;HPM_P1;HPM_P2
2024/02/01 00:00:54;;;;;;;8.93;1.90;;;;;;;9.58;100.00;101709.81;4973674;28;20038;-92
2024/02/01 00:03:19;;;;;;;6.03;2.03;;;;;;;9.59;100.00;101715.81;4973661;28;20026;-91
2024/02/01 00:05:45;;;;;;;6.25;1.92;;;;;;;9.54;100.00;101728.84;4974019;28;20389;-91
2024/02/01 00:08:10;;;;;;;7.70;2.05;;;;;;;9.60;100.00;101727.78;4974305;28;20150;-91
2024/02/01 00:10:36;;;;;;;9.07;2.45;;;;;;;9.60;100.00;101726.06;4974264;28;20037;-91
2024/02/01 00:13:01;;;;;;;14.25;3.17;;;;;;;9.40;100.00;101726.72;4974250;28;20548;-92
2024/02/01 00:15:26;;;;;;;8.80;3.40;;;;;;;9.48;100.00;101738.50;4972635;28;20110;-92
2024/02/01 00:17:52;;;;;;;9.38;3.92;;;;;;;9.47;100.00;101723.94;4973338;28;20039;-91
2024/02/01 00:20:17;;;;;;;10.95;3.92;;;;;;;9.29;100.00;101728.78;4973615;28;20037;-92
2024/02/01 00:22:42;;;;;;;11.57;4.00;;;;;;;9.38;100.00;101741.38;4973734;28;20505;-92
2024/02/01 00:25:08;;;;;;;7.28;4.28;;;;;;;9.37;100.00;101737.13;4972817;28;20023;-92
2024/02/01 00:27:33;;;;;;;8.45;3.67;;;;;;;9.45;100.00;101723.16;4973716;28;20069;-92
2024/02/01 00:30:00;;;;;;;8.60;3.53;;;;;;;9.49;100.00;101722.16;4972370;28;20035;-91
2024/02/01 00:32:25;;;;;;;10.63;3.83;;;;;;;9.47;100.00;101721.38;4973621;28;20048;-91
2024/02/01 00:34:51;;;;;;;9.35;2.80;;;;;;;9.54;100.00;101728.84;4973252;28;20019;-90
2024/02/01 00:37:16;;;;;;;5.53;2.00;;;;;;;9.50;100.00;101731.56;4973584;28;20034;-91
2024/02/01 00:39:42;;;;;;;3.28;1.70;;;;;;;9.39;100.00;101749.97;4973956;28;20139;-92
2024/02/01 00:42:07;;;;;;;2.70;1.40;;;;;;;9.41;100.00;101754.19;4972428;28;20481;-93
2024/02/01 00:44:33;;;;;;;3.85;1.45;;;;;;;9.36;100.00;101745.75;4973002;28;20062;-92
2024/02/01 00:46:58;;;;;;;2.38;1.33;;;;;;;9.34;100.00;101747.53;4973457;28;20637;-91
2024/02/01 00:49:23;;;;;;;5.15;1.98;;;;;;;9.25;100.00;101741.81;4971788;28;20030;-90
2024/02/01 00:51:49;;;;;;;4.43;2.10;;;;;;;9.11;100.00;101755.13;4973801;28;20023;-92
2024/02/01 00:54:14;;;;;;;2.50;1.02;;;;;;;9.19;100.00;101766.00;4973725;28;20038;-92
2024/02/01 00:56:39;;;;;;;2.75;0.80;;;;;;;9.29;100.00;101754.56;4973686;28;20025;-92
2024/02/01 00:59:05;;;;;;;1.05;0.73;;;;;;;9.20;100.00;101770.28;4972897;28;20035;-93
2024/02/01 01:01:30;;;;;;;3.78;0.80;;;;;;;9.21;100.00;101774.53;4973038;28;20085;-93
2024/02/01 01:03:56;;;;;;;1.75;0.55;;;;;;;9.17;100.00;101778.97;4973532;28;20023;-94
2024/02/01 01:06:21;;;;;;;1.80;0.50;;;;;;;9.25;100.00;101770.16;4973614;28;20101;-93
2024/02/01 01:08:47;;;;;;;0.57;0.40;;;;;;;9.15;100.00;101769.59;4972339;28;20470;-92
2024/02/01 01:11:12;;;;;;;3.30;0.57;;;;;;;9.20;100.00;101765.97;4973219;28;20524;-93
2024/02/01 01:13:38;;;;;;;1.67;0.80;;;;;;;9.12;100.00;101778.25;4972356;28;20027;-92
2024/02/01 01:16:03;;;;;;;1.00;0.65;;;;;;;8.99;100.00;101792.38;4972148;28;20485;-93
2024/02/01 01:18:29;;;;;;;1.80;0.40;;;;;;;9.07;100.00;101790.44;4973282;28;20062;-93
2024/02/01 01:20:57;;;;;;;1.30;0.40;;;;;;;9.12;100.00;101796.28;4971838;28;20133;-93
2024/02/01 01:23:22;;;;;;;1.50;0.50;;;;;;;9.10;100.00;101794.66;4973331;28;20023;-92
2024/02/01 01:25:47;;;;;;;3.53;0.60;;;;;;;8.88;100.00;101805.56;4973191;28;20081;-93
2024/02/01 01:28:13;;;;;;;1.27;0.32;;;;;;;8.98;100.00;101816.44;4973675;28;20049;-92
2024/02/01 01:30:38;;;;;;;3.45;0.50;;;;;;;9.05;100.00;101814.53;4973169;28;20038;-93
2024/02/01 01:33:04;;;;;;;2.20;0.45;;;;;;;8.92;100.00;101811.47;4973230;28;20417;-93
2024/02/01 01:35:29;;;;;;;1.80;0.40;;;;;;;8.80;100.00;101817.78;4971722;28;20432;-91
2024/02/01 01:37:54;;;;;;;1.05;0.30;;;;;;;8.84;100.00;101829.69;4973340;28;20030;-94
2024/02/01 01:40:20;;;;;;;1.40;0.20;;;;;;;9.00;100.00;101830.97;4972035;28;20114;-93
2024/02/01 01:42:46;;;;;;;5.28;0.73;;;;;;;9.01;100.00;101831.81;4972117;28;20066;-94
2024/02/01 01:45:12;;;;;;;0.93;0.40;;;;;;;8.87;100.00;101832.19;4971947;28;20425;-93
2024/02/01 01:47:37;;;;;;;0.57;0.15;;;;;;;8.59;100.00;101831.28;4973134;28;20084;-92
2024/02/01 01:50:05;;;;;;;1.00;0.20;;;;;;;8.59;100.00;101846.72;4972174;28;20045;-92
2024/02/01 01:52:31;;;;;;;1.95;0.30;;;;;;;8.48;100.00;101840.09;4972743;28;20105;-92
2024/02/01 01:54:58;;;;;;;3.22;0.63;;;;;;;8.35;100.00;101842.13;4972945;28;20019;-93
2024/02/01 01:57:25;;;;;;;2.20;0.25;;;;;;;8.25;100.00;101847.53;4972992;28;20022;-93
2024/02/01 01:59:51;;;;;;;0.30;0.20;;;;;;;8.17;100.00;101857.16;4973102;28;20031;-93
2024/02/01 02:02:16;;;;;;;2.22;0.28;;;;;;;8.05;100.00;101861.75;4971642;28;20540;-93
2024/02/01 02:04:42;;;;;;;1.02;0.17;;;;;;;7.89;100.00;101860.41;4971136;28;20027;-93
2024/02/01 02:07:08;;;;;;;1.65;0.20;;;;;;;7.84;100.00;101869.94;4970311;28;20045;-92
2024/02/01 02:09:33;;;;;;;1.80;0.30;;;;;;;7.70;100.00;101868.53;4972573;28;20023;-93
2024/02/01 02:11:58;;;;;;;3.65;0.35;;;;;;;7.66;100.00;101877.19;4972722;28;20062;-94
2024/02/01 02:14:24;;;;;;;5.43;0.47;;;;;;;7.56;100.00;101880.84;4971185;28;20493;-94
2024/02/01 02:16:49;;;;;;;2.80;0.50;;;;;;;7.54;100.00;101869.75;4952379;29;20478;-94
2024/02/01 02:19:16;;;;;;;8.27;0.60;;;;;;;7.52;100.00;101873.25;4968704;28;20034;-92
2024/02/01 02:21:46;;;;;;;3.60;0.47;;;;;;;7.49;100.00;101876.72;4953360;28;20034;-93
2024/02/01 02:24:17;;;;;;;3.93;0.80;;;;;;;7.35;100.00;101891.56;4956538;28;20027;-92
2024/02/01 02:26:43;;;;;;;4.28;0.65;;;;;;;7.32;100.00;101896.78;4972342;28;20085;-94
2024/02/01 02:29:09;;;;;;;4.53;1.77;;;;;;;7.24;100.00;101899.47;4972717;28;20030;-93
2024/02/01 02:31:35;;;;;;;4.55;0.63;;;;;;;7.18;100.00;101894.50;4970590;28;20023;-93
2024/02/01 02:34:01;;;;;;;2.92;0.40;;;;;;;7.13;100.00;101899.72;4971008;28;20122;-93
2024/02/01 02:36:27;;;;;;;5.50;1.50;;;;;;;7.04;100.00;101903.28;4972463;28;20035;-92
2024/02/01 02:38:52;;;;;;;3.97;0.75;;;;;;;7.03;100.00;101913.59;4972367;28;20101;-92
2024/02/01 02:41:17;;;;;;;2.00;0.45;;;;;;;6.95;100.00;101912.88;4954409;28;20031;-92
2024/02/01 02:43:44;;;;;;;3.55;0.60;;;;;;;6.89;100.00;101902.75;4967255;28;20390;-94
2024/02/01 02:46:09;;;;;;;8.32;1.08;;;;;;;6.81;100.00;101902.91;4973373;28;20027;-93
2024/02/01 02:48:37;;;;;;;12.68;1.15;;;;;;;6.68;100.00;101899.69;4973898;28;20655;-94
2024/02/01 02:51:03;;;;;;;7.43;0.80;;;;;;;6.75;100.00;101903.00;4975991;28;20280;-94
2024/02/01 02:53:29;;;;;;;9.27;0.88;;;;;;;6.67;100.00;101913.38;4974738;28;20146;-94
2024/02/01 02:55:54;;;;;;;7.15;0.73;;;;;;;6.55;100.00;101911.03;4974449;28;20078;-92
2024/02/01 02:58:20;;;;;;;5.05;0.90;;;;;;;6.49;100.00;101906.03;4975971;28;20544;-93
2024/02/01 03:00:45;;;;;;;4.13;0.98;;;;;;;6.45;100.00;101917.19;4974706;28;20492;-91
2024/02/01 03:03:10;;;;;;;3.85;0.80;;;;;;;6.35;100.00;101917.34;4987735;28;20050;-93
2024/02/01 03:05:36;;;;;;;3.28;0.60;;;;;;;6.42;100.00;101928.34;4974982;28;20059;-93
2024/02/01 03:08:04;;;;;;;5.00;1.10;;;;;;;6.41;100.00;101939.47;4974370;28;20015;-93
2024/02/01 03:10:30;;;;;;;11.32;1.65;;;;;;;6.29;100.00;101937.97;4975507;28;20022;-92
2024/02/01 03:12:56;;;;;;;6.13;0.82;;;;;;;6.20;100.00;101933.81;4975532;28;20023;-92
2024/02/01 03:15:22;;;;;;;7.03;0.98;;;;;;;6.18;100.00;101950.09;4975427;28;20492;-93
2024/02/01 03:17:49;;;;;;;4.72;0.82;;;;;;;6.16;100.00;101944.13;4974241;28;20053;-92
2024/02/01 03:20:22;;;;;;;4.15;1.35;;;;;;;6.13;100.00;101949.31;4973146;28;20030;-91
2024/02/01 03:22:48;;;;;;;5.32;0.95;;;;;;;6.07;100.00;101957.09;4975056;28;20062;-92
2024/02/01 03:25:16;;;;;;;8.70;3.05;;;;;;;5.98;100.00;101948.66;4973521;28;20049;-93
2024/02/01 03:27:43;;;;;;;13.63;2.08;;;;;;;5.88;100.00;101949.63;4954845;29;20027;-92
2024/02/01 03:30:12;;;;;;;4.20;0.80;;;;;;;5.93;100.00;101968.34;4962118;28;20086;-91
2024/02/01 03:32:41;;;;;;;10.52;1.35;;;;;;;5.89;100.00;101979.50;4975334;28;20470;-94
2024/02/01 03:35:09;;;;;;;5.30;1.30;;;;;;;5.91;100.00;101977.78;4975296;28;20590;-92
2024/02/01 03:37:34;;;;;;;10.85;1.13;;;;;;;5.90;100.00;101981.22;4975091;28;20022;-94
2024/02/01 03:40:00;;;;;;;7.80;1.20;;;;;;;5.82;100.00;101975.31;4974290;28;20037;-92
2024/02/01 03:42:26;;;;;;;8.20;1.23;;;;;;;5.84;100.00;101985.56;4974798;28;20035;-93
2024/02/01 03:44:52;;;;;;;7.75;1.08;;;;;;;5.67;100.00;101989.19;4974924;28;20022;-93
2024/02/01 03:47:17;;;;;;;4.88;1.10;;;;;;;5.78;100.00;101997.59;4974882;28;20105;-92
2024/02/01 03:49:43;;;;;;;4.22;1.00;;;;;;;5.77;100.00;102011.25;4974795;28;20378;-92
2024/02/01 03:52:09;;;;;;;7.50;1.35;;;;;;;5.70;100.00;102014.75;4974752;28;20015;-92
2024/02/01 03:54:38;;;;;;;13.30;3.17;;;;;;;5.71;100.00;102031.00;4974802;28;20107;-93
2024/02/01 03:57:05;;;;;;;10.98;1.48;;;;;;;5.53;100.00;102032.88;4969437;28;20035;-92
2024/02/01 03:59:31;;;;;;;7.43;1.30;;;;;;;5.47;100.00;102035.50;4954851;28;20043;-92
2024/02/01 04:02:03;;;;;;;6.97;1.70;;;;;;;5.51;100.00;102033.75;4954264;29;20405;-93
2024/02/01 04:04:30;;;;;;;7.40;1.40;;;;;;;5.55;100.00;102041.38;4955294;28;20027;-93
2024/02/01 04:06:55;;;;;;;6.68;1.30;;;;;;;5.52;100.00;102043.16;4955205;28;20034;-93
2024/02/01 04:09:20;;;;;;;7.18;1.23;;;;;;;5.44;100.00;102040.69;4955085;28;20042;-94
2024/02/01 04:11:46;;;;;;;12.18;1.58;;;;;;;5.47;100.00;102038.06;4955463;28;20035;-93
2024/02/01 04:14:11;;;;;;;4.95;1.20;;;;;;;5.48;100.00;102039.75;4971405;28;20470;-91
2024/02/01 04:16:38;;;;;;;6.45;1.13;;;;;;;5.47;100.00;102053.44;4974365;28;20042;-92
2024/02/01 04:19:03;;;;;;;12.90;1.83;;;;;;;5.37;100.00;102056.97;4972352;28;20086;-93
2024/02/01 04:21:28;;;;;;;10.32;1.33;;;;;;;5.34;100.00;102059.53;4972977;28;20110;-93
2024/02/01 04:23:54;;;;;;;13.77;1.98;;;;;;;5.30;100.00;102060.44;4974476;28;20524;-93
2024/02/01 04:26:20;;;;;;;9.43;1.42;;;;;;;5.33;100.00;102057.84;4974420;28;20101;-93
2024/02/01 04:28:45;;;;;;;8.57;1.67;;;;;;;5.29;100.00;102063.84;4974269;28;20031;-93
2024/02/01 04:31:11;;;;;;;4.07;1.08;;;;;;;5.28;100.00;102067.28;4974203;28;20026;-94
2024/02/01 04:33:40;;;;;;;13.43;1.50;;;;;;;5.29;100.00;102074.09;4973222;28;20039;-93
2024/02/01 04:36:07;;;;;;;14.93;1.73;;;;;;;5.34;100.00;102087.69;4972827;28;20035;-93
2024/02/01 04:38:33;;;;;;;6.57;1.60;;;;;;;5.29;100.00;102079.22;4973004;28;20209;-93
2024/02/01 04:40:58;;;;;;;8.40;1.40;;;;;;;5.27;100.00;102091.19;4974328;28;20057;-93
2024/02/01 04:43:23;;;;;;;19.13;1.95;;;;;;;5.24;100.00;102091.19;4973137;28;20059;-93
2024/02/01 04:45:49;;;;;;;9.45;1.80;;;;;;;5.43;100.00;102097.84;4974186;28;20019;-92
2024/02/01 04:48:15;;;;;;;14.93;1.77;;;;;;;5.36;100.00;102091.09;4974326;28;20065;-93
2024/02/01 04:50:40;;;;;;;11.63;1.63;;;;;;;5.31;100.00;102097.97;4974134;28;20065;-93
2024/02/01 04:53:06;;;;;;;8.30;1.33;;;;;;;5.33;100.00;102109.88;4972688;28;20022;-93
2024/02/01 04:55:32;;;;;;;11.43;2.08;;;;;;;5.29;100.00;102115.03;4973553;28;20058;-93
2024/02/01 04:57:58;;;;;;;8.63;1.60;;;;;;;5.29;100.00;102115.03;4972465;28;20058;-94
2024/02/01 05:00:23;;;;;;;8.50;1.55;;;;;;;5.27;100.00;102132.16;4973884;28;20151;-92
2024/02/01 05:02:49;;;;;;;12.88;2.80;;;;;;;5.38;100.00;102125.22;4972478;28;20038;-93
2024/02/01 05:05:16;;;;;;;9.02;1.67;;;;;;;5.22;100.00;102121.94;4973610;28;20473;-93
2024/02/01 05:07:42;;;;;;;12.07;2.42;;;;;;;5.38;100.00;102132.06;4972250;28;20023;-93
2024/02/01 05:10:13;;;;;;;15.00;3.47;;;;;;;5.26;100.00;102130.44;4972650;28;20484;-92
2024/02/01 05:12:42;;;;;;;14.90;2.25;;;;;;;5.19;100.00;102131.34;4971476;28;20026;-93
2024/02/01 05:15:09;;;;;;;12.35;1.63;;;;;;;5.00;100.00;102128.94;4972499;28;20022;-92
2024/02/01 05:17:39;;;;;;;11.50;1.65;;;;;;;4.97;100.00;102128.09;4971849;28;20039;-93
2024/02/01 05:20:08;;;;;;;15.30;1.98;;;;;;;5.02;100.00;102124.63;4973600;28;20113;-92
2024/02/01 05:22:41;;;;;;;9.45;2.22;;;;;;;4.91;100.00;102131.56;4973655;28;20384;-93
2024/02/01 05:25:18;;;;;;;11.77;2.15;;;;;;;4.89;100.00;102135.84;4973654;28;20049;-92
2024/02/01 05:27:50;;;;;;;10.15;1.85;;;;;;;4.83;100.00;102138.41;4972189;28;20057;-92
2024/02/01 05:30:16;;;;;;;14.13;3.90;;;;;;;4.86;100.00;102146.09;4972198;28;20059;-93
2024/02/01 05:32:48;;;;;;;13.55;2.15;;;;;;;4.70;100.00;102146.16;4972750;28;20062;-93
2024/02/01 05:35:15;;;;;;;6.88;1.20;;;;;;;4.68;100.00;102142.78;4971761;28;20397;-92
2024/02/01 05:37:46;;;;;;;23.70;3.15;;;;;;;4.56;100.00;102137.75;4971804;28;20533;-93
2024/02/01 05:40:16;;;;;;;8.45;1.50;;;;;;;4.52;100.00;102136.03;4971739;28;20023;-92
2024/02/01 05:42:44;;;;;;;13.13;1.90;;;;;;;4.52;100.00;102140.31;4971969;28;20477;-92
2024/02/01 05:45:09;;;;;;;7.95;1.40;;;;;;;4.45;100.00;102148.00;4971642;28;20465;-93
2024/02/01 05:47:35;;;;;;;10.27;1.80;;;;;;;4.34;100.00;102146.34;4973005;28;20090;-93
2024/02/01 05:50:00;;;;;;;20.42;2.13;;;;;;;4.29;100.00;102154.91;4972968;28;20122;-94
2024/02/01 05:52:26;;;;;;;20.40;1.95;;;;;;;4.14;100.00;102157.50;4973102;28;20042;-92
2024/02/01 05:54:54;;;;;;;12.13;2.08;;;;;;;4.14;100.00;102162.59;4972878;28;20027;-92
2024/02/01 05:57:20;;;;;;;8.02;1.65;;;;;;;4.14;100.00;102160.03;4970907;28;20041;-93
2024/02/01 05:59:45;;;;;;;10.88;2.00;;;;;;;4.14;100.00;102154.94;4973017;28;20031;-93
2024/02/01 06:02:11;;;;;;;16.00;2.28;;;;;;;4.00;100.00;102156.66;4971447;28;20081;-94
2024/02/01 06:04:36;;;;;;;12.90;1.55;;;;;;;3.88;100.00;102151.59;4971741;28;20027;-93
2024/02/01 06:07:01;;;;;;;14.82;2.15;;;;;;;3.92;100.00;102160.97;4971608;28;20037;-92
2024/02/01 06:09:27;;;;;;;9.15;2.00;;;;;;;3.77;100.00;102157.56;4972921;28;20030;-92
2024/02/01 06:11:52;;;;;;;11.48;1.55;;;;;;;3.70;100.00;102158.44;4972051;28;20039;-92
2024/02/01 06:14:18;;;;;;;12.35;2.40;;;;;;;3.57;100.00;102161.88;4972863;28;20105;-92
2024/02/01 06:16:44;;;;;;;11.95;1.48;;;;;;;3.61;100.00;102161.03;4972836;28;20027;-92
2024/02/01 06:19:09;;;;;;;13.43;1.45;;;;;;;3.41;100.00;102161.88;4972900;28;20027;-93
2024/02/01 06:21:35;;;;;;;7.35;1.65;;;;;;;3.27;100.00;102163.56;4974322;28;20037;-94
2024/02/01 06:24:00;;;;;;;11.38;2.08;;;;;;;3.22;100.00;102175.47;4976501;28;20031;-92
2024/02/01 06:26:28;;;;;;;16.13;2.92;;;;;;;3.24;100.00;102178.88;4975674;28;20074;-93
2024/02/01 06:28:56;;;;;;;7.13;1.27;;;;;;;3.21;100.00;102179.72;4976773;28;20030;-93
2024/02/01 06:31:24;;;;;;;27.55;2.15;;;;;;;3.30;100.00;102183.16;4976185;28;20045;-93
2024/02/01 06:33:50;;;;;;;19.98;2.97;;;;;;;3.26;100.00;102177.16;4976343;28;20113;-94
2024/02/01 06:36:20;;;;;;;7.63;1.45;;;;;;;3.16;100.00;102178.00;4975096;28;20507;-93
2024/02/01 06:44:21;;;;;;;12.73;2.78;;;;;;;2.89;100.00;102202.63;4976380;28;20041;-92
2024/02/01 06:49:29;;;;;;;13.38;1.80;;;;;;;2.83;100.00;102217.91;4976365;28;20051;-93
2024/02/01 06:55:06;;;;;;;22.70;3.75;;;;;;;2.67;100.00;102227.19;4976448;28;20496;-94
2024/02/01 06:57:48;;;;;;;10.00;2.17;;;;;;;2.25;100.00;102225.28;4974155;28;20129;-93
2024/02/01 07:03:02;;;;;;;14.02;2.20;;;;;;;2.23;100.00;102220.19;4976040;28;19969;-92
2024/02/01 07:08:26;;;;;;;15.63;1.77;;;;;;;2.39;100.00;102226.22;4975879;28;20085;-94
2024/02/01 07:16:35;;;;;;;14.18;2.58;;;;;;;1.89;100.00;102240.31;4974698;28;20030;-93
2024/02/01 07:24:46;;;;;;;11.65;2.58;;;;;;;2.12;100.00;102248.16;4975657;28;20501;-93
2024/02/01 08:00:08;;;;;;;14.50;2.20;;;;;;;1.96;100.00;102312.53;4972186;28;20109;-95
2024/02/01 08:08:04;;;;;;;17.02;3.53;;;;;;;2.32;100.00;102339.16;4974475;28;20025;-93
2024/02/01 08:10:29;;;;;;;15.80;2.22;;;;;;;1.66;100.00;102341.13;4974120;28;20046;-93
2024/02/01 08:13:05;;;;;;;11.60;2.25;;;;;;;1.85;100.00;102339.59;4972570;28;20035;-92
2024/02/01 08:15:37;;;;;;;15.45;2.38;;;;;;;2.10;100.00;102345.78;4973679;28;20033;-93
2024/02/01 08:18:08;;;;;;;17.17;2.33;;;;;;;2.01;100.00;102341.44;4971816;28;20114;-91
2024/02/01 08:20:34;;;;;;;41.58;6.57;;;;;;;2.22;100.00;102337.34;4971921;28;20027;-95
2024/02/01 08:23:00;;;;;;;9.50;2.03;;;;;;;2.33;100.00;102333.19;4972366;28;20037;-94
2024/02/01 08:25:25;;;;;;;14.98;2.33;;;;;;;2.26;100.00;102334.84;4973334;28;20421;-91
2024/02/01 08:27:53;;;;;;;15.38;2.80;;;;;;;2.45;100.00;102333.28;4973908;28;20393;-91
2024/02/01 08:30:23;;;;;;;15.30;2.33;;;;;;;1.95;100.00;102338.81;4973039;28;20038;-95
2024/02/01 08:32:49;;;;;;;16.50;2.60;;;;;;;1.79;100.00;102354.81;4973025;28;20042;-94
2024/02/01 08:35:16;;;;;;;18.67;4.57;;;;;;;2.14;100.00;102348.31;4973282;28;20030;-93
2024/02/01 08:37:43;;;;;;;19.65;2.95;;;;;;;2.42;100.00;102356.19;4973177;28;20031;-94
2024/02/01 08:40:16;;;;;;;14.30;2.33;;;;;;;2.69;100.00;102352.13;4972742;28;20038;-95
2024/02/01 08:42:49;;;;;;;19.40;2.70;;;;;;;2.99;100.00;102366.75;4973181;28;20029;-96
2024/02/01 08:45:16;;;;;;;17.27;2.55;;;;;;;3.14;100.00;102348.09;4971960;28;20027;-94
2024/02/01 08:47:45;;;;;;;17.95;2.33;;;;;;;3.30;100.00;102349.88;4973938;28;20033;-95
2024/02/01 08:50:11;;;;;;;32.15;5.43;;;;;;;3.49;100.00;102355.88;4973674;28;20054;-93
2024/02/01 08:52:38;;;;;;;25.70;3.75;;;;;;;3.62;100.00;102354.22;4972870;28;20519;-92
2024/02/01 08:55:10;;;;;;;20.77;3.60;;;;;;;3.71;100.00;102341.47;4973693;28;20030;-94
2024/02/01 08:57:37;;;;;;;15.07;2.25;;;;;;;3.88;100.00;102346.59;4972613;28;20023;-93
2024/02/01 09:00:21;;;;;;;18.40;2.33;;;;;;;4.00;100.00;102358.50;4972710;28;20127;-91
2024/02/01 09:03:03;;;;;;;16.83;4.72;;;;;;;4.01;100.00;102365.34;4973926;28;20105;-92
2024/02/01 09:05:42;;;;;;;25.02;3.10;;;;;;;3.95;100.00;102383.19;4973026;28;20035;-93
2024/02/01 09:08:12;;;;;;;13.50;2.42;;;;;;;3.93;100.00;102382.38;4975295;28;20030;-93
2024/02/01 09:10:38;;;;;;;18.00;3.75;;;;;;;4.04;100.00;102390.88;4973383;28;20077;-94
2024/02/01 09:13:04;;;;;;;14.75;2.30;;;;;;;4.12;100.00;102389.22;4973704;28;20027;-96
2024/02/01 09:15:35;;;;;;;9.93;2.47;;;;;;;4.32;100.00;102388.34;4971893;28;20042;-95
2024/02/01 09:18:01;;;;;;;11.15;2.28;;;;;;;4.49;100.00;102396.88;4973107;28;20026;-91
2024/02/01 09:20:27;;;;;;;19.17;4.07;;;;;;;4.61;100.00;102394.31;4972198;28;20043;-91
2024/02/01 09:22:54;;;;;;;16.83;2.25;;;;;;;4.71;100.00;102393.44;4973035;28;20371;-91
2024/02/01 09:25:24;;;;;;;13.68;3.50;;;;;;;4.76;100.00;102384.91;4971901;28;20026;-92
2024/02/01 09:27:52;;;;;;;14.75;3.20;;;;;;;4.82;100.00;102395.13;4973685;28;20031;-93
2024/02/01 09:30:19;;;;;;;11.68;3.38;;;;;;;4.91;100.00;102395.94;4973920;28;20418;-93
2024/02/01 09:32:49;;;;;;;17.05;3.47;;;;;;;5.03;100.00;102405.31;4971832;28;20050;-93
2024/02/01 09:35:16;;;;;;;22.08;4.15;;;;;;;5.00;100.00;102400.19;4971450;28;20428;-92
2024/02/01 09:37:42;;;;;;;12.32;2.45;;;;;;;5.11;100.00;102398.44;4972953;28;20023;-94
2024/02/01 09:40:10;;;;;;;21.40;2.90;;;;;;;5.42;100.00;102411.13;4972695;28;20034;-90
2024/02/01 09:42:41;;;;;;;20.73;3.35;;;;;;;5.62;100.00;102405.06;4972025;28;20019;-92
2024/02/01 09:45:06;;;;;;;25.10;3.78;;;;;;;5.65;100.00;102411.00;4972527;28;20031;-91
2024/02/01 09:47:43;;;;;;;18.83;3.20;;;;;;;6.02;100.00;102415.09;4970196;28;20022;-92
2024/02/01 09:50:12;;;;;;;17.77;2.90;;;;;;;6.26;100.00;102409.78;4952378;29;20474;-94
2024/02/01 09:52:48;;;;;;;23.30;3.20;;;;;;;6.83;100.00;102412.72;4966928;28;20026;-91
2024/02/01 09:55:17;;;;;;;19.55;3.38;;;;;;;7.68;100.00;102417.72;4989803;28;20030;-92
2024/02/01 09:57:48;;;;;;;22.45;2.85;;;;;;;7.96;100.00;102408.75;4970159;28;20095;-93
2024/02/01 10:00:18;;;;;;;13.80;2.72;;;;;;;7.83;100.00;102420.94;4967778;28;20058;-91
2024/02/01 10:02:47;;;;;;;18.52;3.10;;;;;;;8.50;97.74;102422.47;4976641;28;20026;-93
2024/02/01 10:05:13;;;;;;;16.02;3.22;;;;;;;8.55;96.62;102430.97;4975042;28;20034;-92
2024/02/01 10:07:38;;;;;;;17.27;2.80;;;;;;;8.43;99.00;102431.19;4975351;28;20031;-93
2024/02/01 10:10:05;;;;;;;22.23;3.22;;;;;;;8.34;97.96;102433.91;4976388;28;20035;-93
2024/02/01 10:12:34;;;;;;;21.75;3.55;;;;;;;8.44;92.24;102438.03;4976513;28;20037;-93
2024/02/01 10:15:10;;;;;;;19.00;3.60;;;;;;;8.41;90.89;102443.22;4975708;28;20078;-92
2024/02/01 10:17:45;;;;;;;16.25;3.35;;;;;;;8.26;94.92;102451.16;4975089;28;20039;-93
2024/02/01 10:20:33;;;;;;;21.08;4.47;;;;;;;8.14;93.60;102455.63;4975313;28;20093;-92
2024/02/01 10:23:00;;;;;;;17.75;2.88;;;;;;;8.72;93.37;102463.31;4974717;28;20054;-91
2024/02/01 10:25:33;;;;;;;26.48;3.97;;;;;;;8.76;89.53;102460.66;4976188;28;20102;-91
2024/02/01 10:28:04;;;;;;;20.73;4.03;;;;;;;9.58;86.91;102466.81;4975301;28;20033;-94
2024/02/01 10:30:33;;;;;;;21.02;4.05;;;;;;;10.10;83.44;102465.72;4974257;28;20031;-93
2024/02/01 10:33:03;;;;;;;19.70;3.55;;;;;;;10.37;81.64;102478.88;4974701;28;20178;-92
2024/02/01 10:35:31;;;;;;;21.25;5.50;;;;;;;10.01;78.75;102486.53;4975288;28;20037;-93
2024/02/01 10:37:59;;;;;;;19.27;3.53;;;;;;;9.97;79.33;102484.91;4973702;28;20397;-92
2024/02/01 10:40:39;;;;;;;18.83;2.72;;;;;;;9.36;81.88;102482.75;4975790;28;20453;-94
2024/02/01 10:43:05;;;;;;;13.77;3.75;;;;;;;9.64;81.26;102487.34;4976542;28;20063;-94
2024/02/01 10:45:35;;;;;;;25.92;3.95;;;;;;;10.03;80.94;102493.38;4976437;28;20050;-90
2024/02/01 10:48:10;;;;;;;15.00;3.92;;;;;;;10.98;77.36;102482.50;4976160;28;20102;-92
2024/02/01 10:50:39;;;;;;;18.85;4.07;;;;;;;11.14;73.95;102480.34;4975047;28;20042;-92
2024/02/01 10:53:11;;;;;;;19.58;3.53;;;;;;;11.50;71.86;102483.66;4975684;28;20524;-95
2024/02/01 10:55:40;;;;;;;21.75;4.13;;;;;;;11.38;75.61;102480.56;4987678;28;20423;-90
2024/02/01 10:58:13;;;;;;;18.30;3.50;;;;;;;11.62;70.67;102484.19;4993198;28;20026;-93
2024/02/01 11:00:42;;;;;;;34.42;4.18;;;;;;;12.27;67.82;102488.31;4994980;28;20408;-93
2024/02/01 11:03:11;;;;;;;22.08;4.88;;;;;;;12.31;66.52;102501.09;4994965;28;20503;-93
2024/02/01 11:05:38;;;;;;;14.27;3.30;;;;;;;12.52;65.31;102483.19;4978755;28;20030;-93
2024/02/01 11:08:04;;;;;;;16.33;3.45;;;;;;;12.74;63.21;102468.59;4974301;28;20022;-94
2024/02/01 11:10:29;;;;;;;12.57;2.97;;;;;;;13.30;61.60;102471.88;4975186;28;20447;-93
2024/02/01 11:12:55;;;;;;;15.80;3.50;;;;;;;12.77;60.39;102483.19;4974548;28;20034;-93
2024/02/01 11:15:25;;;;;;;16.08;4.00;;;;;;;12.40;61.40;102479.25;4974620;28;20097;-94
2024/02/01 11:17:51;;;;;;;16.98;3.38;;;;;;;12.99;62.96;102484.16;4975141;28;20050;-92
2024/02/01 11:20:22;;;;;;;18.90;3.38;;;;;;;13.26;59.55;102477.16;4975008;28;20039;-95
2024/02/01 11:22:58;;;;;;;16.40;3.08;;;;;;;13.37;58.90;102489.75;4973990;28;20023;-94
2024/02/01 11:25:27;;;;;;;14.27;3.53;;;;;;;13.36;59.82;102482.03;4972952;28;20026;-92
2024/02/01 11:27:53;;;;;;;10.88;3.10;;;;;;;13.38;59.34;102488.00;4976384;28;20029;-96
2024/02/01 11:30:31;;;;;;;17.45;3.53;;;;;;;13.18;60.28;102484.34;4977187;28;20031;-96
2024/02/01 11:32:59;;;;;;;15.82;2.85;;;;;;;13.36;59.04;102495.00;5009765;23;20053;-94
2024/02/01 11:35:26;;;;;;;16.80;3.05;;;;;;;13.15;60.13;102499.19;4953443;28;20401;-94
2024/02/01 11:38:01;;;;;;;11.90;2.70;;;;;;;12.91;61.11;102487.91;4975296;28;20094;-95
2024/02/01 11:40:29;;;;;;;17.52;4.32;;;;;;;12.60;59.77;102486.34;4953343;29;20031;-95
2024/02/01 11:42:58;;;;;;;22.50;3.90;;;;;;;12.59;60.47;102489.84;4953195;28;20042;-95
2024/02/01 11:45:24;;;;;;;20.02;4.00;;;;;;;11.86;62.56;102483.47;4955273;28;20034;-96
2024/02/01 11:47:51;;;;;;;15.27;3.35;;;;;;;11.86;65.81;102487.81;4955435;28;20470;-95
2024/02/01 11:50:17;;;;;;;16.15;3.60;;;;;;;11.85;65.67;102486.97;4956368;28;20023;-95
2024/02/01 11:52:55;;;;;;;21.00;3.55;;;;;;;11.31;65.47;102480.75;4972680;28;20090;-94
2024/02/01 11:55:20;;;;;;;20.05;3.10;;;;;;;11.02;63.87;102473.78;4957879;28;20405;-95
2024/02/01 11:57:48;;;;;;;13.50;2.83;;;;;;;11.41;65.05;102460.66;4975496;28;20034;-96
2024/02/01 12:00:18;;;;;;;18.80;4.57;;;;;;;11.54;65.55;102467.16;4956475;28;20379;-95
2024/02/01 12:02:45;;;;;;;20.20;3.38;;;;;;;11.73;61.72;102471.81;4974142;28;20458;-95
2024/02/01 12:05:12;;;;;;;19.88;3.70;;;;;;;11.56;62.02;102478.31;4973302;28;20122;-93
2024/02/01 12:07:37;;;;;;;20.88;3.42;;;;;;;11.64;64.36;102478.09;4957740;28;20019;-93
2024/02/01 12:10:10;;;;;;;15.70;3.85;;;;;;;12.35;61.07;102476.78;4974683;28;20034;-95
2024/02/01 12:12:37;;;;;;;16.65;4.03;;;;;;;12.50;60.76;102456.47;4956106;28;20085;-95
2024/02/01 12:15:04;;;;;;;18.85;3.22;;;;;;;12.23;61.11;102440.09;4961292;28;20061;-95
2024/02/01 12:17:42;;;;;;;21.95;3.65;;;;;;;12.48;61.41;102434.94;4975091;28;20042;-94
2024/02/01 12:20:09;;;;;;;23.75;3.70;;;;;;;12.88;60.65;102442.22;4974276;28;20473;-94
2024/02/01 12:22:34;;;;;;;15.43;3.42;;;;;;;12.80;59.76;102452.84;4972472;28;20031;-95
2024/02/01 12:25:01;;;;;;;13.82;3.28;;;;;;;12.61;60.60;102457.81;4966204;28;20078;-94
2024/02/01 12:27:26;;;;;;;18.05;3.90;;;;;;;12.65;59.37;102463.72;4971156;28;20105;-95
2024/02/01 12:29:52;;;;;;;20.25;4.55;;;;;;;12.58;59.35;102462.22;4955612;28;20418;-92